Assis Brasil, Brazil
Current Conditions -  °F | °C
As of 3:00 AM on Friday 28 Nov 2014 (Local Time) from SBRB Reporting Station
Broken Clouds Broken Clouds  
Wind Chill: 70°   Ceiling: 1500
Heat Index: 70°   Visibility: 6mi
Dew Point: 68°   Wind: 5mph
Humidity: 94%   Direction: 90°E
Pressure: 29.8"   Gusts: NA
Location:  10.94°S, 69.57°W
Report Text: SBRB 280700Z 09004KT 9999 SCT003 BKN015 BKN100 21/20 Q1009
Loading
Personal Weather Stations






























Interactive Weather Map New forecast layout! Learn more

10-Day Weather Forecast

Advertisements
Track Severe Weather on mobile